createdAt,value
2019-04-23T11:35:17.634Z,123.00
2019-04-23T11:36:19.354Z,123.00
2019-04-23T11:37:05.350Z,123.00
2019-04-23T11:38:21.988Z,123.00
2019-04-23T11:38:58.708Z,123.00
2019-04-23T11:40:13.653Z,123.00
2019-04-23T11:41:09.102Z,123.00
2019-04-23T11:42:11.515Z,123.00
2019-04-23T11:44:18.972Z,123.00
2019-04-23T11:45:50.176Z,123.00
2019-04-23T16:59:09.652Z,99154.00
2019-04-23T17:00:06.803Z,99149.00
2019-04-23T17:00:45.755Z,99148.00
2019-04-23T17:01:24.921Z,99146.00
2019-04-23T17:02:40.559Z,99150.00
2019-04-23T17:03:32.960Z,99147.00
2019-04-23T17:04:30.719Z,99148.00
2019-04-23T17:05:31.486Z,99147.00
2019-04-23T17:06:30.908Z,99149.00
2019-04-23T17:07:24.280Z,99143.00
2019-04-23T17:10:36.633Z,99148.00
2019-04-23T17:11:18.884Z,99142.00
2019-04-23T17:12:09.142Z,99141.00
2019-04-23T17:13:14.252Z,99144.00
2019-04-23T17:14:09.223Z,99143.00
2019-04-23T17:15:27.895Z,99137.00
2019-04-23T17:17:08.361Z,99141.00
2019-04-23T17:18:13.563Z,99143.00
2019-04-23T17:19:17.821Z,99144.00
2019-04-23T17:21:23.778Z,99143.00
2019-04-23T17:22:09.916Z,99135.00
2019-04-23T17:23:29.033Z,99140.00
2019-04-23T17:24:19.027Z,99138.00
2019-04-23T17:25:29.866Z,99141.00
2019-04-23T17:27:16.437Z,99139.00
2019-04-23T17:29:15.191Z,99141.00
2019-04-23T17:38:07.453Z,991.38
2019-04-23T17:41:15.606Z,991.35
2019-04-23T17:41:31.214Z,991.38
2019-04-23T17:41:48.407Z,991.37
2019-04-23T17:42:39.364Z,991.38
2019-04-23T17:43:05.867Z,991.44
2019-04-23T17:44:24.093Z,991.48
2019-04-23T17:45:30.949Z,991.42
2019-04-23T17:46:18.050Z,991.43
2019-04-23T17:48:24.075Z,991.44
2019-04-23T17:49:15.597Z,991.46
2019-04-23T17:51:13.308Z,991.49
2019-04-23T17:52:24.163Z,991.45
2019-04-23T17:53:31.868Z,991.50
2019-04-23T17:54:19.349Z,991.41
2019-04-23T17:55:18.308Z,991.44
2019-04-23T17:56:27.235Z,991.47
2019-04-23T17:58:23.421Z,991.46
2019-04-23T18:04:43.775Z,991.52
2019-04-23T18:05:40.712Z,991.50
2019-04-23T18:06:42.313Z,991.55
2019-04-23T18:08:27.239Z,991.54
2019-04-23T18:09:27.807Z,991.57
2019-04-23T18:11:47.601Z,991.55
2019-04-23T18:12:38.871Z,991.57
2019-04-23T18:13:40.333Z,991.61
2019-04-23T18:14:21.683Z,991.66
2019-04-23T18:15:28.031Z,991.64
2019-04-23T18:16:35.569Z,991.61
2019-04-23T18:17:34.307Z,991.63
2019-04-23T18:18:39.616Z,991.61
2019-04-23T18:19:47.189Z,991.59
2019-04-23T18:20:28.270Z,991.62
2019-04-23T18:21:50.753Z,991.61
2019-04-23T18:22:42.305Z,991.60
2019-04-23T18:23:32.086Z,991.63
2019-04-23T18:24:36.401Z,991.64
2019-04-23T18:25:37.398Z,991.65
2019-04-23T18:26:36.417Z,991.65
2019-04-23T18:27:33.426Z,991.67
2019-04-23T18:28:37.685Z,991.66
2019-04-23T18:29:42.065Z,991.69
2019-04-23T18:30:37.908Z,991.71
2019-04-23T18:31:40.729Z,991.70
2019-04-23T18:32:44.765Z,991.72
2019-04-23T18:34:54.118Z,991.67
2019-04-23T18:36:32.484Z,991.66
2019-04-23T18:37:37.999Z,991.74
2019-04-23T18:38:41.285Z,991.67
2019-04-23T18:39:45.109Z,991.72
2019-04-23T18:40:54.536Z,991.71
2019-04-23T18:41:42.502Z,991.65
2019-04-23T18:43:44.922Z,991.69
2019-04-23T18:44:43.620Z,991.71
2019-04-23T18:45:45.307Z,991.73
2019-04-23T18:46:43.698Z,991.69
2019-04-23T18:47:46.941Z,991.71
2019-04-23T18:51:00.218Z,991.70
2019-04-23T18:52:01.351Z,991.70
2019-04-23T18:53:54.513Z,991.73
2019-04-23T18:55:09.095Z,991.72
2019-04-23T18:57:09.860Z,991.73
2019-04-23T18:57:55.367Z,991.71
2019-04-23T19:01:49.537Z,991.78
2019-04-23T19:02:56.654Z,991.74
2019-04-23T19:04:09.823Z,991.78
2019-04-23T19:06:05.135Z,991.74
2019-04-23T19:06:40.005Z,991.78
2019-04-23T19:10:12.142Z,991.77
2019-04-23T19:10:53.744Z,991.79
2019-04-23T19:12:48.128Z,991.81
2019-04-23T19:13:50.536Z,991.81
2019-04-23T19:14:56.298Z,991.84
2019-04-23T19:15:48.797Z,991.84
2019-04-23T19:17:50.209Z,991.93
2019-04-23T19:18:57.586Z,991.89
2019-04-23T19:19:55.627Z,991.89
2019-04-23T19:22:16.059Z,991.85
2019-04-23T19:22:58.602Z,991.89
2019-04-23T19:23:54.979Z,991.92
2019-04-23T19:24:51.870Z,991.87
2019-04-23T19:25:59.702Z,991.87
2019-04-23T19:27:10.597Z,991.91
2019-04-23T19:28:08.871Z,991.87
2019-04-23T19:29:00.446Z,991.88
2019-04-23T19:29:59.907Z,991.85
2019-04-23T19:31:18.790Z,991.87
2019-04-23T19:31:57.034Z,991.82
2019-04-23T19:33:05.769Z,991.87
2019-04-23T19:34:14.538Z,991.84
2019-04-23T19:35:07.057Z,991.82
2019-04-23T19:38:05.766Z,991.80
2019-04-23T19:39:11.110Z,991.78
2019-04-23T19:40:04.836Z,991.79
2019-04-23T19:41:21.290Z,991.82
2019-04-23T19:42:49.757Z,991.80
2019-04-23T19:43:49.266Z,991.82
2019-04-23T19:44:51.167Z,991.81
2019-04-23T19:45:56.711Z,991.79
2019-04-23T19:47:00.219Z,991.82
2019-04-23T19:47:58.656Z,991.79
2019-04-23T19:49:03.249Z,991.86
2019-04-23T19:49:51.270Z,991.81
2019-04-23T19:53:08.079Z,991.83
2019-04-23T19:54:56.654Z,991.81
2019-04-23T19:56:04.376Z,991.83
2019-04-23T19:58:00.002Z,991.85
2019-04-23T19:58:54.322Z,991.82
2019-04-23T19:59:55.968Z,991.82
2019-04-23T20:03:09.844Z,991.77
2019-04-23T20:03:54.098Z,991.78
2019-04-23T20:04:56.164Z,991.78
2019-04-23T20:06:05.951Z,991.79
2019-04-23T20:08:04.495Z,991.76
2019-04-23T20:09:16.231Z,991.76
2019-04-23T20:09:51.999Z,991.76
2019-04-23T20:10:55.960Z,991.78
2019-04-23T20:12:01.386Z,991.78
2019-04-23T20:12:51.817Z,991.75
2019-04-23T20:13:55.370Z,991.81
2019-04-23T20:14:58.178Z,991.75
2019-04-23T20:17:17.713Z,991.78
2019-04-23T20:17:53.928Z,991.80
2019-04-23T20:18:54.746Z,991.77
2019-04-23T20:19:58.704Z,991.79
2019-04-23T20:20:59.363Z,991.81
2019-04-23T20:23:03.671Z,991.79
2019-04-23T20:24:08.425Z,991.74
2019-04-23T20:25:30.037Z,991.78
2019-04-23T20:27:13.999Z,991.76
2019-04-23T20:28:15.001Z,991.79
2019-04-23T20:30:33.252Z,991.73
2019-04-23T20:33:53.065Z,991.75
2019-04-23T20:35:06.638Z,991.79
2019-04-23T20:36:14.646Z,991.75
2019-04-23T20:36:58.035Z,991.78
2019-04-23T20:38:25.527Z,991.74
2019-04-23T20:39:17.250Z,991.72
2019-04-23T20:41:14.811Z,991.79
2019-04-23T20:43:06.952Z,991.74
2019-04-23T20:44:12.505Z,991.80
2019-04-23T20:47:11.618Z,991.77
2019-04-23T20:48:14.202Z,991.80
2019-04-23T20:49:21.423Z,991.81
2019-04-23T20:49:58.784Z,991.80
2019-04-23T20:51:14.350Z,991.82
2019-04-23T20:52:13.973Z,991.82
2019-04-23T20:53:13.687Z,991.80
2019-04-23T20:54:18.573Z,991.80
2019-04-23T20:55:17.311Z,991.85
2019-04-23T20:56:17.990Z,991.83
2019-04-23T20:57:24.650Z,991.87
2019-04-23T20:58:09.591Z,991.82
2019-04-23T20:59:11.343Z,991.86
2019-04-23T21:02:33.791Z,991.79
2019-04-23T21:03:29.838Z,991.79
2019-04-23T21:04:23.504Z,991.75
2019-04-23T21:05:21.308Z,991.77
2019-04-23T21:06:18.905Z,991.76
2019-04-23T21:07:30.929Z,991.79
2019-04-23T21:08:30.090Z,991.78
2019-04-23T21:09:31.204Z,991.78
2019-04-23T21:10:30.686Z,991.72
2019-04-23T21:11:29.215Z,991.76
2019-04-23T21:12:41.739Z,991.79
2019-04-23T21:14:46.160Z,991.73
2019-04-23T21:16:21.137Z,991.75
2019-04-23T21:17:35.594Z,991.73
2019-04-23T21:18:33.054Z,991.73
2019-04-23T21:19:35.682Z,991.73
2019-04-23T21:21:27.608Z,991.72
2019-04-23T21:23:30.308Z,991.70
2019-04-23T21:24:27.401Z,991.70
2019-04-23T21:25:32.454Z,991.65
2019-04-23T21:26:25.069Z,991.70
2019-04-23T21:27:38.549Z,991.65
2019-04-23T21:29:39.945Z,991.67
2019-04-23T21:30:46.552Z,991.68
2019-04-23T21:31:22.866Z,991.67
2019-04-23T21:32:52.602Z,991.66
2019-04-23T21:33:55.353Z,991.62
2019-04-23T21:34:34.286Z,991.62
2019-04-23T21:35:49.265Z,991.61
2019-04-23T21:36:25.671Z,991.60
2019-04-23T21:37:37.660Z,991.62
2019-04-23T21:38:46.411Z,991.62
2019-04-23T21:39:48.005Z,991.59
2019-04-23T21:40:56.542Z,991.62
2019-04-23T21:41:44.847Z,991.62
2019-04-23T21:42:41.120Z,991.57
2019-04-23T21:43:47.556Z,991.57
2019-04-23T21:44:28.884Z,991.58
2019-04-23T21:45:40.845Z,991.60
2019-04-23T21:46:43.095Z,991.58
2019-04-23T21:47:46.306Z,991.52
2019-04-23T21:48:56.134Z,991.54
2019-04-23T21:50:43.735Z,991.55
2019-04-23T21:51:51.857Z,991.57
2019-04-23T21:52:41.655Z,991.58
2019-04-23T21:53:42.661Z,991.59
2019-04-23T21:54:38.207Z,991.55
2019-04-23T21:55:48.709Z,991.55
2019-04-23T21:56:40.074Z,991.52
2019-04-23T21:57:59.698Z,991.55
2019-04-23T21:58:58.058Z,991.59
2019-04-23T21:59:44.674Z,991.54
2019-04-23T22:00:42.077Z,991.57
2019-04-23T22:01:51.085Z,991.59
2019-04-23T22:02:45.477Z,991.59
2019-04-23T22:03:56.619Z,991.60
2019-04-23T22:04:49.953Z,991.57
2019-04-23T22:05:53.138Z,991.57
2019-04-23T22:06:52.879Z,991.59
2019-04-23T22:07:51.556Z,991.61
2019-04-23T22:08:43.853Z,991.60
2019-04-23T22:09:50.688Z,991.60
2019-04-23T22:11:00.611Z,991.57
2019-04-23T22:12:00.350Z,991.62
2019-04-23T22:12:54.645Z,991.58
2019-04-23T22:14:47.020Z,991.59
2019-04-23T22:16:01.728Z,991.60
2019-04-23T22:17:06.250Z,991.58
2019-04-23T22:17:50.257Z,991.61
2019-04-23T22:20:00.550Z,991.56
2019-04-23T22:20:49.303Z,991.62
2019-04-23T22:21:50.184Z,991.56
2019-04-23T22:23:58.301Z,991.56
2019-04-23T22:24:48.607Z,991.54
2019-04-23T22:25:56.987Z,991.56
2019-04-23T22:26:45.010Z,991.54
2019-04-23T22:27:54.823Z,991.53
2019-04-23T22:29:49.159Z,991.54
2019-04-23T22:31:10.716Z,991.54
2019-04-23T22:33:02.596Z,991.51
2019-04-23T22:34:02.246Z,991.51
2019-04-23T22:34:56.014Z,991.51
2019-04-23T22:37:04.256Z,991.47
2019-04-23T22:38:09.091Z,991.51
2019-04-23T22:38:59.516Z,991.52
2019-04-23T22:41:04.662Z,991.43
2019-04-23T22:44:07.520Z,991.49
2019-04-23T22:45:05.608Z,991.47
2019-04-23T22:46:18.261Z,991.49
2019-04-23T22:47:00.867Z,991.47
2019-04-23T22:51:19.383Z,991.49
2019-04-23T22:52:18.678Z,991.54
2019-04-23T22:53:01.977Z,991.53
2019-04-23T22:54:07.087Z,991.50
2019-04-23T22:55:07.987Z,991.52
2019-04-23T22:56:03.229Z,991.48
2019-04-23T22:58:04.396Z,991.54
2019-04-23T22:59:18.618Z,991.53
2019-04-23T23:01:17.500Z,991.53
2019-04-23T23:02:08.891Z,991.53
2019-04-23T23:04:04.995Z,991.49
2019-04-23T23:05:31.742Z,991.47
2019-04-23T23:08:07.812Z,991.48
2019-04-23T23:09:18.954Z,991.49
2019-04-23T23:11:28.741Z,991.50
2019-04-23T23:12:39.954Z,991.48
